Data for 06/11/2014

Time Sea-Level Adjusted Pressure Absolute Pressure Temperature Relative Humidity Dew Point   
(mb) (inHg) (mb) (inHg) (C) (F) (%) (C) (F)
00:05 1018 30.06 847 25.01 8.6 47.5 83 6 42.8
00:10 1017 30.03 847 25.01 8.8 47.8 83 6 42.8
00:15 1017 30.03 846 24.98 8.8 47.9 81 5.7 42.3
00:20 1017 30.03 846 24.98 8.8 47.9 81 5.8 42.5
00:25 1017 30.03 846 24.98 8.7 47.7 82 5.8 42.4
00:30 1017 30.03 846 24.98 8.6 47.5 80 5.4 41.7
00:35 1017 30.03 846 24.98 8.6 47.4 79 5.1 41.2
00:40 1017 30.03 846 24.98 8.6 47.4 77 4.7 40.5
00:45 1017 30.03 846 24.98 8.7 47.7 76 4.7 40.5
00:50 1017 30.03 846 24.98 8.6 47.5 79 5.2 41.3
00:55 1017 30.03 846 24.98 8.4 47.1 79 4.9 40.8
01:00 1017 30.03 846 24.98 8.2 46.7 80 4.9 40.8
01:05 1017 30.03 846 24.98 8 46.4 80 4.8 40.6
01:10 1017 30.03 846 24.98 7.9 46.3 80 4.8 40.6
01:15 1017 30.03 846 24.98 8 46.3 79 4.6 40.2
01:20 1017 30.03 846 24.98 8.1 46.5 80 4.8 40.6
01:25 1017 30.03 846 24.98 8 46.4 81 5 41
01:30 1017 30.03 846 24.98 7.9 46.2 83 5.2 41.4
01:35 1017 30.03 847 25.01 7.8 46.1 83 5.1 41.1
01:40 1017 30.03 847 25.01 7.8 46.1 83 5.1 41.2
01:45 1017 30.03 847 25.01 7.7 45.8 83 5 41
01:50 1018 30.06 847 25.01 7.7 45.8 83 4.9 40.9
01:55 1018 30.06 847 25.01 7.7 45.8 85 5.3 41.5
02:00 1018 30.06 847 25.01 7.5 45.6 86 5.4 41.6
02:05 1018 30.06 847 25.01 7.5 45.4 86 5.3 41.5
02:10 1018 30.06 847 25.01 7.4 45.4 86 5.3 41.5
02:15 1018 30.06 847 25.01 7.4 45.3 86 5.2 41.4
02:20 1018 30.06 847 25.01 7.4 45.3 85 5 41.1
02:25 1018 30.06 847 25.01 7.3 45.1 85 4.9 40.9
02:30 1018 30.06 847 25.01 7 44.7 86 4.9 40.8
02:35 1018 30.06 847 25.01 6.9 44.5 87 4.9 40.7
02:40 1018 30.06 847 25.01 6.8 44.2 86 4.5 40.2
02:45 1018 30.06 847 25.01 6.8 44.2 85 4.4 39.9
02:50 1018 30.06 847 25.01 6.7 44 85 4.3 39.8
02:55 1018 30.06 847 25.01 6.6 43.9 85 4.2 39.6
03:00 1018 30.06 847 25.01 6.7 44 83 4.1 39.3
03:05 1018 30.06 847 25.01 6.8 44.2 83 4 39.3
03:10 1018 30.06 847 25.01 6.8 44.2 84 4.3 39.8
03:15 1018 30.06 847 25.01 6.4 43.5 86 4.3 39.7
03:20 1018 30.06 847 25.01 6.1 42.9 86 3.9 39
03:25 1018 30.06 847 25.01 6 42.8 85 3.7 38.7
03:30 1018 30.06 847 25.01 5.9 42.6 86 3.7 38.7
03:35 1018 30.06 847 25.01 5.8 42.5 87 3.8 38.8
03:40 1018 30.06 847 25.01 5.6 42 88 3.7 38.6
03:45 1018 30.06 847 25.01 5.5 41.9 87 3.6 38.4
03:50 1018 30.06 847 25.01 5.6 42 88 3.7 38.7
03:55 1018 30.06 847 25.01 5.7 42.3 87 3.8 38.8
04:00 1018 30.06 847 25.01 5.8 42.4 86 3.6 38.4
04:05 1018 30.06 847 25.01 5.9 42.6 82 3.1 37.6
04:10 1018 30.06 847 25.01 6.2 43.1 82 3.3 38
04:15 1018 30.06 847 25.01 6 42.9 83 3.3 38
04:20 1018 30.06 847 25.01 5.8 42.5 84 3.3 37.9
04:25 1018 30.06 847 25.01 5.6 42.1 85 3.3 37.9
04:30 1018 30.06 847 25.01 5.4 41.7 86 3.3 37.9
04:35 1018 30.06 847 25.01 5.3 41.5 87 3.3 37.9
04:40 1018 30.06 847 25.01 5.2 41.3 87 3.3 37.9
04:45 1018 30.06 847 25.01 5 41.1 88 3.2 37.7
04:50 1018 30.06 847 25.01 5.1 41.2 87 3.1 37.6
04:55 1018 30.06 847 25.01 5.3 41.6 85 3 37.4
05:00 1018 30.06 847 25.01 5.6 42.1 85 3.3 37.9
05:05 1018 30.06 847 25.01 5.8 42.4 85 3.4 38
05:10 1018 30.06 848 25.04 5.8 42.4 85 3.5 38.3
05:15 1018 30.06 848 25.04 5.8 42.4 85 3.5 38.4
05:20 1019 30.09 848 25.04 6 42.9 84 3.6 38.5
05:25 1019 30.09 848 25.04 6.3 43.3 83 3.6 38.6
05:30 1019 30.09 848 25.04 6.4 43.6 82 3.6 38.5
05:35 1019 30.09 848 25.04 6.3 43.3 83 3.7 38.6
05:40 1019 30.09 848 25.04 6.1 43 84 3.6 38.5
05:45 1019 30.09 848 25.04 6 42.9 85 3.7 38.6
05:50 1019 30.09 848 25.04 6 42.8 85 3.6 38.5
05:55 1019 30.09 848 25.04 6 42.8 83 3.4 38.1
06:00 1019 30.09 848 25.04 6 42.9 84 3.6 38.5
06:05 1019 30.09 848 25.04 6.1 42.9 84 3.5 38.3
06:10 1019 30.09 848 25.04 6.1 43 84 3.7 38.6
06:15 1019 30.09 848 25.04 6.2 43.2 84 3.7 38.7
06:20 1019 30.09 848 25.04 6.6 43.9 83 3.9 39
06:25 1019 30.09 848 25.04 7.1 44.9 80 4 39.2
06:30 1019 30.09 848 25.04 7.7 45.9 77 3.9 39
06:35 1019 30.09 848 25.04 8.3 47 75 4.2 39.6
06:40 1019 30.09 848 25.04 9.1 48.3 73 4.6 40.2
06:45 1019 30.09 848 25.04 9.3 48.8 70 4.2 39.5
06:50 1019 30.09 848 25.04 9.8 49.6 67 3.9 39.1
06:55 1019 30.09 848 25.04 10.2 50.4 70 5 41
07:00 1019 30.09 848 25.04 10.5 50.9 66 4.4 40
07:05 1019 30.09 848 25.04 10.7 51.2 67 4.8 40.7
07:10 1019 30.09 848 25.04 10.8 51.4 67 4.9 40.8
07:15 1019 30.09 849 25.07 11.4 52.5 60 4 39.1
07:20 1019 30.09 849 25.07 11.4 52.4 63 4.5 40.2
07:25 1019 30.09 849 25.07 10.6 51.1 66 4.5 40.2
07:30 1019 30.09 849 25.07 10.8 51.5 63 4 39.2
07:35 1019 30.09 849 25.07 11.5 52.6 61 4.3 39.8
07:40 1020 30.12 849 25.07 12.1 53.7 60 4.6 40.2
07:45 1020 30.12 849 25.07 12.3 54.2 58 4.3 39.8
07:50 1020 30.12 849 25.07 12.8 55.1 57 4.5 40.1
07:55 1020 30.12 849 25.07 13 55.4 56 4.5 40.1
08:00 1020 30.12 849 25.07 12.7 54.8 59 4.9 40.8
08:05 1020 30.12 849 25.07 11.9 53.5 59 4.3 39.7
08:10 1020 30.12 849 25.07 12.4 54.3 58 4.5 40.1
08:15 1019 30.09 849 25.07 12.9 55.2 58 4.8 40.6
08:20 1019 30.09 849 25.07 12.9 55.3 57 4.8 40.6
08:25 1019 30.09 849 25.07 13.3 55.9 55 4.5 40.1
08:30 1019 30.09 849 25.07 12.9 55.3 57 4.8 40.6
08:35 1019 30.09 849 25.07 13.3 55.9 56 4.8 40.6
08:40 1020 30.12 849 25.07 13.2 55.8 54 4.1 39.5
08:45 1020 30.12 849 25.07 13.9 57 52 4.4 40
08:50 1020 30.12 849 25.07 14.3 57.7 52 4.5 40.1
08:55 1020 30.12 849 25.07 14.2 57.6 49 3.8 38.8
09:00 1020 30.12 849 25.07 14.3 57.8 47 3.3 38
09:05 1020 30.12 849 25.07 13.8 56.8 51 4 39.1
09:10 1019 30.09 849 25.07 13.7 56.6 46 2.2 36
09:15 1019 30.09 849 25.07 14.8 58.6 44 2.6 36.7
09:20 1019 30.09 849 25.07 15.1 59.2 43 2.9 37.2
09:25 1019 30.09 849 25.07 15.4 59.8 43 2.9 37.2
09:30 1019 30.09 849 25.07 15.6 60.1 40 2.3 36.1
09:35 1019 30.09 849 25.07 15.3 59.6 33 -0.7 30.8
09:40 1019 30.09 849 25.07 15.4 59.7 37 0.8 33.4
09:45 1020 30.12 849 25.07 15.1 59.2 35 -0.1 31.8
09:50 1020 30.12 849 25.07 15.3 59.5 34 -0.3 31.5
09:55 1020 30.12 849 25.07 16.4 61.5 31 -0.5 31.1
10:00 1020 30.12 849 25.07 16.2 61.2 32 -0.2 31.6
10:05 1020 30.12 849 25.07 16.1 61.1 33 -0.2 31.6
10:10 1020 30.12 849 25.07 16.2 61.2 35 0.8 33.5
10:15 1020 30.12 849 25.07 16.5 61.7 35 1.1 34
10:20 1020 30.12 849 25.07 15.3 59.5 34 -0.6 31
10:25 1020 30.12 849 25.07 14.3 57.8 37 -0.2 31.6
10:30 1020 30.12 849 25.07 14.6 58.3 34 -0.9 30.4
10:35 1020 30.12 849 25.07 16.1 60.9 32 -0.4 31.2
10:40 1020 30.12 849 25.07 16 60.7 32 -0.8 30.6
10:45 1020 30.12 849 25.07 15.7 60.2 32 -0.7 30.8
10:50 1020 30.12 849 25.07 15.3 59.6 32 -1.1 30
10:55 1020 30.12 849 25.07 15.5 59.9 33 -0.7 30.7
11:00 1020 30.12 849 25.07 15.8 60.4 31 -1.4 29.5
11:05 1020 30.12 849 25.07 17 62.5 31 -0.3 31.4
11:10 1020 30.12 849 25.07 17.5 63.5 30 -0.3 31.4
11:15 1020 30.12 849 25.07 17.4 63.3 29 -0.7 30.8
11:20 1020 30.12 849 25.07 17.9 64.2 28 -0.5 31.1
11:25 1020 30.12 849 25.07 16.4 61.5 31 -0.7 30.8
11:30 1020 30.12 849 25.07 16.9 62.4 29 -1.3 29.6
11:35 1020 30.12 849 25.07 16.7 62.1 31 -0.6 31
11:40 1020 30.12 849 25.07 16.6 61.9 29 -1.3 29.7
11:45 1020 30.12 849 25.07 17.4 63.3 28 -1.2 29.8
11:50 1020 30.12 849 25.07 17.3 63.1 29 -0.7 30.7
11:55 1020 30.12 849 25.07 16.7 62.1 27 -2.2 28.1
12:00 1020 30.12 849 25.07 17.2 63 28 -1.5 29.3
12:05 1020 30.12 849 25.07 17.5 63.5 27 -1.7 28.9
12:10 1020 30.12 849 25.07 18.1 64.5 25 -1.9 28.6
12:15 1020 30.12 849 25.07 18.5 65.2 24 -2.1 28.2
12:20 1020 30.12 849 25.07 18.1 64.6 27 -1.1 30
12:25 1020 30.12 849 25.07 18.3 64.9 25 -2.1 28.2
12:30 1020 30.12 849 25.07 18.3 65 26 -1.3 29.7
12:35 1020 30.12 849 25.07 18.2 64.8 26 -1.3 29.6
12:40 1020 30.12 849 25.07 18.4 65.1 27 -0.7 30.7
12:45 1020 30.12 849 25.07 18.6 65.4 25 -1.6 29.2
12:50 1020 30.12 849 25.07 18.5 65.3 27 -0.9 30.4
12:55 1020 30.12 849 25.07 18.5 65.2 27 -0.9 30.3
13:00 1020 30.12 849 25.07 19 66.2 26 -0.8 30.5
13:05 1020 30.12 849 25.07 17.2 62.9 28 -1.4 29.5
13:10 1020 30.12 849 25.07 16.7 62.1 30 -1 30.2
13:15 1020 30.12 849 25.07 16.2 61.1 31 -0.7 30.7
13:20 1020 30.12 849 25.07 16.8 62.2 29 -1.2 29.8
13:25 1020 30.12 849 25.07 16.8 62.2 29 -1.3 29.6
13:30 1020 30.12 849 25.07 18.5 65.2 27 -0.5 31.1
13:35 1020 30.12 849 25.07 19.3 66.7 25 -0.9 30.4
13:40 1019 30.09 849 25.07 17.8 64.1 26 -1.6 29.2
13:45 1019 30.09 849 25.07 18.7 65.6 28 -0.1 31.8
13:50 1019 30.09 849 25.07 18.1 64.5 28 -0.4 31.2
13:55 1019 30.09 849 25.07 18.8 65.8 27 -0.4 31.3
14:00 1019 30.09 849 25.07 17.9 64.1 28 -0.8 30.5
14:05 1019 30.09 849 25.07 17 62.5 29 -1 30.1
14:10 1019 30.09 849 25.07 18 64.3 27 -1.4 29.5
14:15 1019 30.09 849 25.07 17.8 64.1 28 -0.7 30.8
14:20 1019 30.09 849 25.07 18.5 65.2 27 -0.8 30.6
14:25 1019 30.09 849 25.07 18.8 65.9 26 -0.8 30.5
14:30 1019 30.09 849 25.07 19.1 66.3 26 -0.8 30.6
14:35 1019 30.09 849 25.07 19 66.1 26 -1.1 30.1
14:40 1019 30.09 849 25.07 19.5 67 25 -0.9 30.3
14:45 1019 30.09 849 25.07 19.4 67 27 -0.1 31.8
14:50 1019 30.09 849 25.07 19.3 66.8 26 -0.4 31.3
14:55 1019 30.09 849 25.07 18.4 65.2 26 -1.1 30
15:00 1019 30.09 849 25.07 19.2 66.6 24 -1.4 29.4
15:05 1019 30.09 849 25.07 19.4 66.8 24 -1.4 29.4
15:10 1019 30.09 849 25.07 19.4 66.9 25 -0.7 30.7
15:15 1019 30.09 849 25.07 18.7 65.6 27 -0.7 30.8
15:20 1019 30.09 849 25.07 17.7 63.9 28 -1.1 30
15:25 1019 30.09 849 25.07 17.9 64.3 26 -1.6 29.2
15:30 1019 30.09 849 25.07 19.5 67.1 22 -2.5 27.5
15:35 1019 30.09 848 25.04 19.5 67.1 24 -1.6 29.2
15:40 1019 30.09 848 25.04 19.2 66.6 25 -1.1 30
15:45 1019 30.09 848 25.04 19.5 67 24 -1.4 29.5
15:50 1019 30.09 848 25.04 19.5 67 25 -1.1 30
15:55 1019 30.09 848 25.04 18.4 65.1 26 -1.3 29.6
16:00 1019 30.09 848 25.04 17.6 63.6 25 -2.6 27.4
16:05 1019 30.09 848 25.04 18.1 64.5 26 -1.8 28.7
16:10 1019 30.09 848 25.04 18.4 65 25 -2 28.4
16:15 1019 30.09 848 25.04 18.4 65.2 24 -2.5 27.5
16:20 1019 30.09 848 25.04 18.5 65.4 22 -3.4 25.9
16:25 1019 30.09 848 25.04 19.1 66.3 22 -2.8 26.9
16:30 1019 30.09 848 25.04 18.5 65.2 22 -3.4 25.9
16:35 1019 30.09 848 25.04 18.3 64.9 23 -3.4 26
16:40 1019 30.09 848 25.04 17.9 64.2 23 -3.7 25.3
16:45 1019 30.09 848 25.04 19.1 66.4 21 -3.4 25.8
16:50 1019 30.09 848 25.04 19.7 67.4 22 -2.8 27
16:55 1019 30.09 848 25.04 19.6 67.3 21 -3.4 25.9
17:00 1019 30.09 848 25.04 18.7 65.7 22 -3.2 26.3
17:05 1019 30.09 848 25.04 18.4 65.2 21 -3.9 25
17:10 1019 30.09 848 25.04 19.1 66.5 20 -4.2 24.4
17:15 1019 30.09 848 25.04 19.4 67 21 -3.5 25.7
17:20 1019 30.09 848 25.04 18.5 65.4 22 -3.6 25.4
17:25 1019 30.09 848 25.04 18.8 65.9 21 -4 24.9
17:30 1019 30.09 848 25.04 19.6 67.3 19 -4.2 24.4
17:35 1019 30.09 848 25.04 19.9 67.8 21 -2.9 26.7
17:40 1019 30.09 848 25.04 19.8 67.7 21 -3.3 26.1
17:45 1019 30.09 848 25.04 19.7 67.5 21 -3.1 26.5
17:50 1019 30.09 848 25.04 18.8 65.8 20 -4.5 23.8
17:55 1019 30.09 848 25.04 19 66.2 18 -5.9 21.4
18:00 1019 30.09 848 25.04 18.7 65.7 18 -5.7 21.8
18:05 1019 30.09 848 25.04 19 66.2 19 -4.8 23.4
18:10 1019 30.09 848 25.04 18.7 65.7 22 -3.1 26.4
18:15 1019 30.09 848 25.04 18.3 64.9 36 3.1 37.6
18:20 1019 30.09 848 25.04 17 62.5 42 4.2 39.6
18:25 1019 30.09 848 25.04 16.1 61 46 4.5 40.1
18:30 1019 30.09 848 25.04 15.5 59.8 48 4.6 40.2
18:35 1019 30.09 848 25.04 15.2 59.4 49 4.6 40.4
18:40 1019 30.09 848 25.04 14.9 58.9 51 4.9 40.8
18:45 1019 30.09 848 25.04 14.6 58.3 51 4.8 40.6
18:50 1019 30.09 848 25.04 14.4 57.9 52 4.8 40.7
18:55 1019 30.09 848 25.04 14.2 57.6 53 4.8 40.7
19:00 1019 30.09 848 25.04 14.1 57.3 53 4.8 40.6
19:05 1019 30.09 848 25.04 14 57.1 53 4.5 40.1
19:10 1019 30.09 848 25.04 13.7 56.7 54 4.5 40.2
19:15 1019 30.09 848 25.04 13.6 56.4 54 4.4 40
19:20 1019 30.09 848 25.04 13.4 56.2 54 4.4 39.9
19:25 1019 30.09 848 25.04 13.3 55.9 54 4.2 39.5
19:30 1019 30.09 848 25.04 13.1 55.6 53 3.9 39.1
19:35 1019 30.09 848 25.04 13 55.4 54 3.9 39.1
19:40 1019 30.09 848 25.04 12.9 55.2 54 3.8 38.8
19:45 1019 30.09 848 25.04 12.6 54.7 54 3.8 38.8
19:50 1019 30.09 848 25.04 12.4 54.3 55 3.7 38.6
19:55 1019 30.09 848 25.04 12.2 54 56 3.7 38.7
20:00 1019 30.09 848 25.04 12 53.6 57 3.9 38.9
20:05 1019 30.09 849 25.07 11.8 53.3 59 4 39.3
20:10 1019 30.09 849 25.07 11.6 52.9 60 4.2 39.5
20:15 1019 30.09 849 25.07 11.5 52.7 61 4.2 39.5
20:20 1019 30.09 849 25.07 11.4 52.5 61 4.1 39.4
20:25 1019 30.09 849 25.07 11.3 52.3 61 4.1 39.4
20:30 1020 30.12 849 25.07 11.2 52.2 62 4.2 39.6
20:35 1020 30.12 849 25.07 11.1 52 63 4.3 39.8
20:40 1020 30.12 849 25.07 11 51.8 64 4.5 40.2
20:45 1020 30.12 849 25.07 10.9 51.5 65 4.6 40.2
20:50 1020 30.12 849 25.07 10.8 51.5 65 4.6 40.3
20:55 1020 30.12 849 25.07 10.8 51.4 66 4.7 40.5
21:00 1020 30.12 849 25.07 10.7 51.2 66 4.7 40.4
21:05 1020 30.12 849 25.07 10.7 51.2 67 4.9 40.8
21:10 1020 30.12 849 25.07 10.6 51.1 68 4.9 40.8
21:15 1020 30.12 849 25.07 10.6 51 68 4.9 40.8
21:20 1020 30.12 849 25.07 10.5 51 68 5 41
21:25 1020 30.12 849 25.07 10.5 50.8 69 5 40.9
21:30 1020 30.12 849 25.07 10.4 50.7 69 5 41.1
21:35 1020 30.12 849 25.07 10.3 50.6 69 5 41
21:40 1020 30.12 849 25.07 10.3 50.5 69 5 41
21:45 1020 30.12 849 25.07 10.3 50.5 69 4.9 40.7
21:50 1020 30.12 849 25.07 10.2 50.3 69 4.9 40.7
21:55 1020 30.12 849 25.07 10.1 50.1 70 4.8 40.7
22:00 1020 30.12 849 25.07 10 50 69 4.7 40.4
22:05 1020 30.12 849 25.07 10 49.9 69 4.7 40.4
22:10 1020 30.12 849 25.07 9.9 49.8 69 4.6 40.3
22:15 1020 30.12 849 25.07 9.8 49.6 70 4.5 40.1
22:20 1020 30.12 849 25.07 9.8 49.6 69 4.4 39.9
22:25 1020 30.12 849 25.07 9.8 49.6 69 4.4 39.9
22:30 1020 30.12 849 25.07 9.7 49.5 69 4.2 39.6
22:35 1020 30.12 849 25.07 9.7 49.5 68 4.2 39.6
22:40 1020 30.12 849 25.07 9.7 49.4 69 4.3 39.7
22:45 1020 30.12 849 25.07 9.6 49.3 68 4.1 39.3
22:50 1020 30.12 849 25.07 9.6 49.3 68 4.1 39.4
22:55 1020 30.12 849 25.07 9.6 49.2 69 4.1 39.4
23:00 1020 30.12 849 25.07 9.5 49.2 68 4 39.3
23:05 1020 30.12 849 25.07 9.5 49.1 68 3.9 39.1
23:10 1020 30.12 849 25.07 9.4 49 68 3.9 39
23:15 1020 30.12 849 25.07 9.4 48.9 68 3.8 38.8
23:20 1020 30.12 849 25.07 9.5 49.1 68 3.8 38.9
23:25 1020 30.12 849 25.07 9.4 48.9 68 3.8 38.8
23:30 1020 30.12 849 25.07 9.3 48.8 68 3.8 38.8
23:35 1020 30.12 849 25.07 9.3 48.7 68 3.7 38.6
23:40 1020 30.12 849 25.07 9.2 48.6 68 3.7 38.6
23:45 1020 30.12 849 25.07 9.2 48.6 69 3.8 38.8
23:50 1020 30.12 849 25.07 9.2 48.5 70 3.9 39.1
23:55 1020 30.12 849 25.07 9.1 48.5 70 4.1 39.3
24:00 1020 30.12 849 25.07 9.1 48.4 71 4.1 39.3